Columbus, Ohio
Traffic Map
Current Weather Conditions
Columbus, Ohio
Broken Clouds
Broken Clouds
66°
Feels Like: 66°
Wind Chill: 66° Ceiling: 5500
Heat Index: 66° Visibility: 10mi
Dew Point: 57° Wind: 5mph
Humidity: 73% Direction: 340° (NNW)
Pressure: 30.1in Gusts: 0mph
Raw Report DataKCMH 291351Z 34004KT 10SM FEW021 BKN055 19/14 A3010 RMK AO2 SLP189 T01890139
Traffic Incident Summary
Active as of:
Severity:
Category:
InformationThere was an issue retrieving the traffic information for this location. Please try a different location or try again shortly.
Advertisements
Track Severe Weather on mobile